sensor_id;sensor_type;location;lat;lon;timestamp;P1;durP1;ratioP1;P2;durP2;ratioP2
18125;SDS011;53956;52.442;13.284;2023-02-01T00:02:19;19.73;;;4.60;;
18125;SDS011;53956;52.442;13.284;2023-02-01T00:04:46;26.83;;;4.83;;
18125;SDS011;53956;52.442;13.284;2023-02-01T00:07:12;25.00;;;5.70;;
18125;SDS011;53956;52.442;13.284;2023-02-01T00:09:39;17.63;;;4.37;;
18125;SDS011;53956;52.442;13.284;2023-02-01T00:12:06;20.87;;;4.70;;
18125;SDS011;53956;52.442;13.284;2023-02-01T00:14:32;22.30;;;4.60;;
18125;SDS011;53956;52.442;13.284;2023-02-01T00:17:04;25.47;;;5.17;;
18125;SDS011;53956;52.442;13.284;2023-02-01T00:19:32;18.83;;;4.90;;
18125;SDS011;53956;52.442;13.284;2023-02-01T00:21:59;21.87;;;4.80;;
18125;SDS011;53956;52.442;13.284;2023-02-01T00:24:26;23.00;;;4.33;;
18125;SDS011;53956;52.442;13.284;2023-02-01T00:26:53;21.80;;;4.37;;
18125;SDS011;53956;52.442;13.284;2023-02-01T00:29:20;22.47;;;4.97;;
18125;SDS011;53956;52.442;13.284;2023-02-01T00:31:49;21.30;;;4.77;;
18125;SDS011;53956;52.442;13.284;2023-02-01T00:34:17;19.50;;;4.33;;
18125;SDS011;53956;52.442;13.284;2023-02-01T00:36:45;24.77;;;5.40;;
18125;SDS011;53956;52.442;13.284;2023-02-01T00:39:13;11.23;;;4.27;;
18125;SDS011;53956;52.442;13.284;2023-02-01T00:41:40;18.70;;;4.47;;
18125;SDS011;53956;52.442;13.284;2023-02-01T00:44:07;18.37;;;4.10;;
18125;SDS011;53956;52.442;13.284;2023-02-01T00:46:33;18.10;;;4.10;;
18125;SDS011;53956;52.442;13.284;2023-02-01T00:49:00;18.80;;;4.40;;
18125;SDS011;53956;52.442;13.284;2023-02-01T00:51:28;22.13;;;4.57;;
18125;SDS011;53956;52.442;13.284;2023-02-01T00:53:56;19.60;;;4.40;;
18125;SDS011;53956;52.442;13.284;2023-02-01T00:56:23;25.73;;;4.37;;
18125;SDS011;53956;52.442;13.284;2023-02-01T00:58:49;20.57;;;4.70;;
18125;SDS011;53956;52.442;13.284;2023-02-01T01:01:17;17.27;;;4.17;;
18125;SDS011;53956;52.442;13.284;2023-02-01T01:03:46;21.53;;;4.47;;
18125;SDS011;53956;52.442;13.284;2023-02-01T01:06:16;16.83;;;4.47;;
18125;SDS011;53956;52.442;13.284;2023-02-01T01:08:45;17.43;;;4.07;;
18125;SDS011;53956;52.442;13.284;2023-02-01T01:11:12;14.93;;;4.30;;
18125;SDS011;53956;52.442;13.284;2023-02-01T01:13:41;18.17;;;4.80;;
18125;SDS011;53956;52.442;13.284;2023-02-01T01:16:09;17.10;;;4.23;;
18125;SDS011;53956;52.442;13.284;2023-02-01T01:18:36;14.63;;;4.87;;
18125;SDS011;53956;52.442;13.284;2023-02-01T01:21:04;18.60;;;4.57;;
18125;SDS011;53956;52.442;13.284;2023-02-01T01:23:32;18.30;;;4.60;;
18125;SDS011;53956;52.442;13.284;2023-02-01T01:26:04;19.97;;;4.93;;
18125;SDS011;53956;52.442;13.284;2023-02-01T01:28:31;19.53;;;4.20;;
18125;SDS011;53956;52.442;13.284;2023-02-01T01:30:58;16.90;;;4.63;;
18125;SDS011;53956;52.442;13.284;2023-02-01T01:33:25;13.70;;;3.90;;
18125;SDS011;53956;52.442;13.284;2023-02-01T01:35:52;25.07;;;4.83;;
18125;SDS011;53956;52.442;13.284;2023-02-01T01:38:18;18.70;;;4.53;;
18125;SDS011;53956;52.442;13.284;2023-02-01T01:40:45;22.30;;;4.30;;
18125;SDS011;53956;52.442;13.284;2023-02-01T01:43:16;20.60;;;4.57;;
18125;SDS011;53956;52.442;13.284;2023-02-01T01:45:47;19.80;;;4.23;;
18125;SDS011;53956;52.442;13.284;2023-02-01T01:48:16;21.53;;;4.30;;
18125;SDS011;53956;52.442;13.284;2023-02-01T01:50:48;16.93;;;4.87;;
18125;SDS011;53956;52.442;13.284;2023-02-01T01:53:18;16.03;;;4.50;;
18125;SDS011;53956;52.442;13.284;2023-02-01T01:55:49;19.03;;;4.40;;
18125;SDS011;53956;52.442;13.284;2023-02-01T01:58:21;16.03;;;4.73;;
18125;SDS011;53956;52.442;13.284;2023-02-01T02:00:50;21.13;;;4.53;;
18125;SDS011;53956;52.442;13.284;2023-02-01T02:03:19;20.93;;;4.57;;
18125;SDS011;53956;52.442;13.284;2023-02-01T02:05:49;18.33;;;4.40;;
18125;SDS011;53956;52.442;13.284;2023-02-01T02:08:17;23.13;;;4.60;;
18125;SDS011;53956;52.442;13.284;2023-02-01T02:10:45;21.73;;;4.73;;
18125;SDS011;53956;52.442;13.284;2023-02-01T02:13:29;19.53;;;4.43;;
18125;SDS011;53956;52.442;13.284;2023-02-01T02:16:16;18.93;;;4.33;;
18125;SDS011;53956;52.442;13.284;2023-02-01T02:18:54;13.83;;;4.20;;
18125;SDS011;53956;52.442;13.284;2023-02-01T02:21:35;22.47;;;4.57;;
18125;SDS011;53956;52.442;13.284;2023-02-01T02:24:22;19.17;;;4.73;;
18125;SDS011;53956;52.442;13.284;2023-02-01T02:27:10;24.53;;;4.43;;
18125;SDS011;53956;52.442;13.284;2023-02-01T02:30:08;14.90;;;3.97;;
18125;SDS011;53956;52.442;13.284;2023-02-01T02:33:15;17.57;;;4.73;;
18125;SDS011;53956;52.442;13.284;2023-02-01T02:35:50;24.00;;;4.90;;
18125;SDS011;53956;52.442;13.284;2023-02-01T02:38:28;16.53;;;4.23;;
18125;SDS011;53956;52.442;13.284;2023-02-01T02:41:03;16.07;;;3.90;;
18125;SDS011;53956;52.442;13.284;2023-02-01T02:43:37;20.20;;;4.37;;
18125;SDS011;53956;52.442;13.284;2023-02-01T02:46:33;22.93;;;4.40;;
18125;SDS011;53956;52.442;13.284;2023-02-01T02:49:27;20.80;;;4.73;;
18125;SDS011;53956;52.442;13.284;2023-02-01T02:52:02;20.77;;;4.67;;
18125;SDS011;53956;52.442;13.284;2023-02-01T02:54:50;19.03;;;4.60;;
18125;SDS011;53956;52.442;13.284;2023-02-01T02:57:22;25.57;;;4.80;;
18125;SDS011;53956;52.442;13.284;2023-02-01T03:00:10;23.07;;;4.43;;
18125;SDS011;53956;52.442;13.284;2023-02-01T03:02:58;20.23;;;4.70;;
18125;SDS011;53956;52.442;13.284;2023-02-01T03:05:45;19.43;;;3.83;;
18125;SDS011;53956;52.442;13.284;2023-02-01T03:08:14;24.90;;;4.80;;
18125;SDS011;53956;52.442;13.284;2023-02-01T03:10:46;20.23;;;4.30;;
18125;SDS011;53956;52.442;13.284;2023-02-01T03:13:18;19.70;;;4.43;;
18125;SDS011;53956;52.442;13.284;2023-02-01T03:15:51;21.70;;;5.10;;
18125;SDS011;53956;52.442;13.284;2023-02-01T03:18:26;22.90;;;4.93;;
18125;SDS011;53956;52.442;13.284;2023-02-01T03:21:00;20.90;;;4.50;;
18125;SDS011;53956;52.442;13.284;2023-02-01T03:23:33;20.13;;;4.63;;
18125;SDS011;53956;52.442;13.284;2023-02-01T03:26:03;26.10;;;4.90;;
18125;SDS011;53956;52.442;13.284;2023-02-01T03:28:34;24.80;;;4.40;;
18125;SDS011;53956;52.442;13.284;2023-02-01T03:31:06;20.80;;;4.43;;
18125;SDS011;53956;52.442;13.284;2023-02-01T03:33:33;19.73;;;4.17;;
18125;SDS011;53956;52.442;13.284;2023-02-01T03:36:05;20.50;;;5.07;;
18125;SDS011;53956;52.442;13.284;2023-02-01T03:38:40;19.23;;;4.57;;
18125;SDS011;53956;52.442;13.284;2023-02-01T03:41:17;24.40;;;5.80;;
18125;SDS011;53956;52.442;13.284;2023-02-01T03:43:52;23.03;;;4.67;;
18125;SDS011;53956;52.442;13.284;2023-02-01T03:46:24;15.37;;;4.13;;
18125;SDS011;53956;52.442;13.284;2023-02-01T03:48:57;17.93;;;4.83;;
18125;SDS011;53956;52.442;13.284;2023-02-01T03:51:29;25.40;;;4.30;;
18125;SDS011;53956;52.442;13.284;2023-02-01T03:53:57;24.43;;;5.47;;
18125;SDS011;53956;52.442;13.284;2023-02-01T03:56:27;26.00;;;4.90;;
18125;SDS011;53956;52.442;13.284;2023-02-01T03:58:55;19.93;;;4.57;;
18125;SDS011;53956;52.442;13.284;2023-02-01T04:01:31;21.60;;;5.03;;
18125;SDS011;53956;52.442;13.284;2023-02-01T04:03:58;24.63;;;5.60;;
18125;SDS011;53956;52.442;13.284;2023-02-01T04:06:25;23.97;;;5.40;;
18125;SDS011;53956;52.442;13.284;2023-02-01T04:08:57;19.10;;;4.63;;
18125;SDS011;53956;52.442;13.284;2023-02-01T04:11:24;26.23;;;4.90;;
18125;SDS011;53956;52.442;13.284;2023-02-01T04:13:52;21.33;;;4.27;;
18125;SDS011;53956;52.442;13.284;2023-02-01T04:16:19;18.10;;;4.20;;
18125;SDS011;53956;52.442;13.284;2023-02-01T04:18:45;22.50;;;4.67;;
18125;SDS011;53956;52.442;13.284;2023-02-01T04:21:12;22.40;;;4.33;;
18125;SDS011;53956;52.442;13.284;2023-02-01T04:23:39;19.97;;;4.53;;
18125;SDS011;53956;52.442;13.284;2023-02-01T04:26:07;23.63;;;4.73;;
18125;SDS011;53956;52.442;13.284;2023-02-01T04:28:34;21.80;;;4.30;;
18125;SDS011;53956;52.442;13.284;2023-02-01T04:31:00;26.37;;;4.93;;
18125;SDS011;53956;52.442;13.284;2023-02-01T04:33:27;23.07;;;4.60;;
18125;SDS011;53956;52.442;13.284;2023-02-01T04:35:54;23.73;;;5.00;;
18125;SDS011;53956;52.442;13.284;2023-02-01T04:38:20;23.43;;;5.23;;
18125;SDS011;53956;52.442;13.284;2023-02-01T04:40:47;18.20;;;4.50;;
18125;SDS011;53956;52.442;13.284;2023-02-01T04:43:16;24.07;;;4.80;;
18125;SDS011;53956;52.442;13.284;2023-02-01T04:45:46;22.80;;;4.90;;
18125;SDS011;53956;52.442;13.284;2023-02-01T04:48:14;16.73;;;4.63;;
18125;SDS011;53956;52.442;13.284;2023-02-01T04:50:41;22.30;;;5.10;;
18125;SDS011;53956;52.442;13.284;2023-02-01T04:53:10;24.97;;;4.83;;
18125;SDS011;53956;52.442;13.284;2023-02-01T04:55:36;27.67;;;5.00;;
18125;SDS011;53956;52.442;13.284;2023-02-01T04:58:03;21.10;;;4.53;;
18125;SDS011;53956;52.442;13.284;2023-02-01T05:00:31;21.27;;;4.57;;
18125;SDS011;53956;52.442;13.284;2023-02-01T05:02:58;21.47;;;5.00;;
18125;SDS011;53956;52.442;13.284;2023-02-01T05:05:25;24.40;;;4.73;;
18125;SDS011;53956;52.442;13.284;2023-02-01T05:07:52;18.03;;;4.67;;
18125;SDS011;53956;52.442;13.284;2023-02-01T05:10:19;23.50;;;5.13;;
18125;SDS011;53956;52.442;13.284;2023-02-01T05:12:46;21.87;;;4.90;;
18125;SDS011;53956;52.442;13.284;2023-02-01T05:15:32;24.63;;;5.13;;
18125;SDS011;53956;52.442;13.284;2023-02-01T05:17:58;24.87;;;4.97;;
18125;SDS011;53956;52.442;13.284;2023-02-01T05:20:25;23.30;;;5.00;;
18125;SDS011;53956;52.442;13.284;2023-02-01T05:22:52;25.63;;;5.43;;
18125;SDS011;53956;52.442;13.284;2023-02-01T05:25:18;23.87;;;5.33;;
18125;SDS011;53956;52.442;13.284;2023-02-01T05:27:45;20.20;;;4.93;;
18125;SDS011;53956;52.442;13.284;2023-02-01T05:30:12;21.27;;;5.10;;
18125;SDS011;53956;52.442;13.284;2023-02-01T05:32:43;20.73;;;5.07;;
18125;SDS011;53956;52.442;13.284;2023-02-01T05:35:10;21.23;;;5.27;;
18125;SDS011;53956;52.442;13.284;2023-02-01T05:37:37;22.63;;;5.47;;
18125;SDS011;53956;52.442;13.284;2023-02-01T05:40:04;24.03;;;5.10;;
18125;SDS011;53956;52.442;13.284;2023-02-01T05:42:31;23.10;;;4.80;;
18125;SDS011;53956;52.442;13.284;2023-02-01T05:44:58;27.77;;;4.77;;
18125;SDS011;53956;52.442;13.284;2023-02-01T05:47:24;20.70;;;5.20;;
18125;SDS011;53956;52.442;13.284;2023-02-01T05:49:52;25.67;;;5.53;;
18125;SDS011;53956;52.442;13.284;2023-02-01T05:52:19;24.60;;;4.87;;
18125;SDS011;53956;52.442;13.284;2023-02-01T05:54:46;24.90;;;4.97;;
18125;SDS011;53956;52.442;13.284;2023-02-01T05:57:14;24.07;;;5.03;;
18125;SDS011;53956;52.442;13.284;2023-02-01T05:59:40;22.97;;;5.27;;
18125;SDS011;53956;52.442;13.284;2023-02-01T06:02:10;23.70;;;5.30;;
18125;SDS011;53956;52.442;13.284;2023-02-01T06:04:37;20.30;;;5.20;;
18125;SDS011;53956;52.442;13.284;2023-02-01T06:07:05;18.43;;;5.33;;
18125;SDS011;53956;52.442;13.284;2023-02-01T06:09:34;26.30;;;5.13;;
18125;SDS011;53956;52.442;13.284;2023-02-01T06:12:01;22.47;;;5.17;;
18125;SDS011;53956;52.442;13.284;2023-02-01T06:14:29;21.93;;;5.10;;
18125;SDS011;53956;52.442;13.284;2023-02-01T06:16:55;23.27;;;5.20;;
18125;SDS011;53956;52.442;13.284;2023-02-01T06:19:22;21.73;;;5.27;;
18125;SDS011;53956;52.442;13.284;2023-02-01T06:21:49;24.47;;;4.83;;
18125;SDS011;53956;52.442;13.284;2023-02-01T06:24:18;21.10;;;4.83;;
18125;SDS011;53956;52.442;13.284;2023-02-01T06:26:44;26.47;;;5.87;;
18125;SDS011;53956;52.442;13.284;2023-02-01T06:29:11;23.20;;;5.57;;
18125;SDS011;53956;52.442;13.284;2023-02-01T06:31:38;19.60;;;4.60;;
18125;SDS011;53956;52.442;13.284;2023-02-01T06:34:07;26.93;;;5.30;;
18125;SDS011;53956;52.442;13.284;2023-02-01T06:36:33;22.20;;;5.10;;
18125;SDS011;53956;52.442;13.284;2023-02-01T06:39:00;16.60;;;4.50;;
18125;SDS011;53956;52.442;13.284;2023-02-01T06:41:29;22.43;;;5.60;;
18125;SDS011;53956;52.442;13.284;2023-02-01T06:43:55;21.30;;;5.37;;
18125;SDS011;53956;52.442;13.284;2023-02-01T06:46:22;17.77;;;5.07;;
18125;SDS011;53956;52.442;13.284;2023-02-01T06:48:49;21.20;;;4.97;;
18125;SDS011;53956;52.442;13.284;2023-02-01T06:51:20;24.03;;;5.37;;
18125;SDS011;53956;52.442;13.284;2023-02-01T06:53:48;24.03;;;5.77;;
18125;SDS011;53956;52.442;13.284;2023-02-01T06:56:15;18.40;;;4.40;;
18125;SDS011;53956;52.442;13.284;2023-02-01T06:58:43;19.53;;;5.40;;
18125;SDS011;53956;52.442;13.284;2023-02-01T07:01:10;20.17;;;4.90;;
18125;SDS011;53956;52.442;13.284;2023-02-01T07:03:37;22.73;;;5.77;;
18125;SDS011;53956;52.442;13.284;2023-02-01T07:06:05;23.83;;;5.37;;
18125;SDS011;53956;52.442;13.284;2023-02-01T07:08:33;20.50;;;5.37;;
18125;SDS011;53956;52.442;13.284;2023-02-01T07:11:01;20.97;;;5.50;;
18125;SDS011;53956;52.442;13.284;2023-02-01T07:13:29;18.53;;;4.57;;
18125;SDS011;53956;52.442;13.284;2023-02-01T07:15:58;20.70;;;5.00;;
18125;SDS011;53956;52.442;13.284;2023-02-01T07:18:26;18.00;;;5.33;;
18125;SDS011;53956;52.442;13.284;2023-02-01T07:20:53;20.27;;;5.13;;
18125;SDS011;53956;52.442;13.284;2023-02-01T07:23:20;19.13;;;5.57;;
18125;SDS011;53956;52.442;13.284;2023-02-01T07:25:47;20.07;;;5.50;;
18125;SDS011;53956;52.442;13.284;2023-02-01T07:28:14;22.50;;;5.07;;
18125;SDS011;53956;52.442;13.284;2023-02-01T07:30:41;20.77;;;5.43;;
18125;SDS011;53956;52.442;13.284;2023-02-01T07:33:09;19.93;;;5.63;;
18125;SDS011;53956;52.442;13.284;2023-02-01T07:35:36;18.63;;;5.00;;
18125;SDS011;53956;52.442;13.284;2023-02-01T07:38:03;21.77;;;5.60;;
18125;SDS011;53956;52.442;13.284;2023-02-01T07:40:29;19.30;;;5.40;;
18125;SDS011;53956;52.442;13.284;2023-02-01T07:42:56;22.83;;;5.97;;
18125;SDS011;53956;52.442;13.284;2023-02-01T07:45:23;20.73;;;5.70;;
18125;SDS011;53956;52.442;13.284;2023-02-01T07:47:51;19.80;;;6.07;;
18125;SDS011;53956;52.442;13.284;2023-02-01T07:50:20;16.93;;;5.23;;
18125;SDS011;53956;52.442;13.284;2023-02-01T07:52:47;24.53;;;6.23;;
18125;SDS011;53956;52.442;13.284;2023-02-01T07:55:13;21.97;;;6.13;;
18125;SDS011;53956;52.442;13.284;2023-02-01T07:57:40;16.00;;;5.67;;
18125;SDS011;53956;52.442;13.284;2023-02-01T08:00:08;19.20;;;5.60;;
18125;SDS011;53956;52.442;13.284;2023-02-01T08:02:53;19.43;;;5.50;;
18125;SDS011;53956;52.442;13.284;2023-02-01T08:05:21;16.77;;;5.07;;
18125;SDS011;53956;52.442;13.284;2023-02-01T08:07:48;13.97;;;5.43;;
18125;SDS011;53956;52.442;13.284;2023-02-01T08:10:15;16.50;;;5.80;;
18125;SDS011;53956;52.442;13.284;2023-02-01T08:12:43;20.33;;;5.70;;
18125;SDS011;53956;52.442;13.284;2023-02-01T08:15:12;14.87;;;5.93;;
18125;SDS011;53956;52.442;13.284;2023-02-01T08:17:40;13.90;;;5.60;;
18125;SDS011;53956;52.442;13.284;2023-02-01T08:20:11;12.10;;;5.70;;
18125;SDS011;53956;52.442;13.284;2023-02-01T08:22:40;12.10;;;5.40;;
18125;SDS011;53956;52.442;13.284;2023-02-01T08:25:07;20.93;;;5.87;;
18125;SDS011;53956;52.442;13.284;2023-02-01T08:27:34;15.33;;;5.77;;
18125;SDS011;53956;52.442;13.284;2023-02-01T08:30:01;19.30;;;6.10;;
18125;SDS011;53956;52.442;13.284;2023-02-01T08:32:28;15.43;;;6.00;;
18125;SDS011;53956;52.442;13.284;2023-02-01T08:34:55;18.67;;;6.37;;
18125;SDS011;53956;52.442;13.284;2023-02-01T08:37:22;11.73;;;5.30;;
18125;SDS011;53956;52.442;13.284;2023-02-01T08:39:50;14.87;;;6.20;;
18125;SDS011;53956;52.442;13.284;2023-02-01T08:42:16;16.37;;;5.87;;
18125;SDS011;53956;52.442;13.284;2023-02-01T08:45:01;12.77;;;5.47;;
18125;SDS011;53956;52.442;13.284;2023-02-01T08:47:28;13.07;;;5.27;;
18125;SDS011;53956;52.442;13.284;2023-02-01T08:49:55;15.63;;;4.83;;
18125;SDS011;53956;52.442;13.284;2023-02-01T08:52:21;12.83;;;4.47;;
18125;SDS011;53956;52.442;13.284;2023-02-01T08:54:50;9.17;;;4.33;;
18125;SDS011;53956;52.442;13.284;2023-02-01T08:57:16;9.23;;;4.07;;
18125;SDS011;53956;52.442;13.284;2023-02-01T08:59:43;7.30;;;3.77;;
18125;SDS011;53956;52.442;13.284;2023-02-01T09:02:11;8.33;;;3.70;;
18125;SDS011;53956;52.442;13.284;2023-02-01T09:04:39;9.67;;;3.13;;
18125;SDS011;53956;52.442;13.284;2023-02-01T09:07:06;5.90;;;3.27;;
18125;SDS011;53956;52.442;13.284;2023-02-01T09:09:32;6.47;;;3.63;;
18125;SDS011;53956;52.442;13.284;2023-02-01T09:12:00;6.57;;;3.13;;
18125;SDS011;53956;52.442;13.284;2023-02-01T09:14:27;5.27;;;3.23;;
18125;SDS011;53956;52.442;13.284;2023-02-01T09:16:54;4.93;;;3.00;;
18125;SDS011;53956;52.442;13.284;2023-02-01T09:19:21;6.00;;;3.30;;
18125;SDS011;53956;52.442;13.284;2023-02-01T09:21:48;4.80;;;2.80;;
18125;SDS011;53956;52.442;13.284;2023-02-01T09:24:15;7.30;;;3.30;;
18125;SDS011;53956;52.442;13.284;2023-02-01T09:26:42;4.37;;;3.30;;
18125;SDS011;53956;52.442;13.284;2023-02-01T09:29:10;4.77;;;3.00;;
18125;SDS011;53956;52.442;13.284;2023-02-01T09:31:37;5.57;;;3.40;;
18125;SDS011;53956;52.442;13.284;2023-02-01T09:34:05;4.63;;;3.00;;
18125;SDS011;53956;52.442;13.284;2023-02-01T09:36:32;5.70;;;3.20;;
18125;SDS011;53956;52.442;13.284;2023-02-01T09:38:59;4.53;;;3.30;;
18125;SDS011;53956;52.442;13.284;2023-02-01T09:41:30;5.53;;;3.23;;
18125;SDS011;53956;52.442;13.284;2023-02-01T09:44:06;7.33;;;3.63;;
18125;SDS011;53956;52.442;13.284;2023-02-01T09:46:41;5.80;;;3.10;;
18125;SDS011;53956;52.442;13.284;2023-02-01T09:49:10;5.37;;;3.40;;
18125;SDS011;53956;52.442;13.284;2023-02-01T09:51:40;5.70;;;3.30;;
18125;SDS011;53956;52.442;13.284;2023-02-01T09:54:11;5.63;;;3.43;;
18125;SDS011;53956;52.442;13.284;2023-02-01T09:56:41;6.47;;;3.77;;
18125;SDS011;53956;52.442;13.284;2023-02-01T09:59:17;6.23;;;3.60;;
18125;SDS011;53956;52.442;13.284;2023-02-01T10:01:52;6.03;;;3.17;;
18125;SDS011;53956;52.442;13.284;2023-02-01T10:04:19;6.33;;;3.00;;
18125;SDS011;53956;52.442;13.284;2023-02-01T10:06:50;5.67;;;3.00;;
18125;SDS011;53956;52.442;13.284;2023-02-01T10:09:30;5.70;;;2.97;;
18125;SDS011;53956;52.442;13.284;2023-02-01T10:12:25;6.60;;;3.17;;
18125;SDS011;53956;52.442;13.284;2023-02-01T10:15:20;5.30;;;3.17;;
18125;SDS011;53956;52.442;13.284;2023-02-01T10:18:03;7.50;;;3.13;;
18125;SDS011;53956;52.442;13.284;2023-02-01T10:20:50;5.37;;;2.90;;
18125;SDS011;53956;52.442;13.284;2023-02-01T10:23:30;6.47;;;3.10;;
18125;SDS011;53956;52.442;13.284;2023-02-01T10:26:17;3.87;;;2.57;;
18125;SDS011;53956;52.442;13.284;2023-02-01T10:28:45;7.00;;;2.70;;
18125;SDS011;53956;52.442;13.284;2023-02-01T10:31:17;6.90;;;2.70;;
18125;SDS011;53956;52.442;13.284;2023-02-01T10:33:44;7.80;;;3.40;;
18125;SDS011;53956;52.442;13.284;2023-02-01T10:36:13;5.53;;;2.77;;
18125;SDS011;53956;52.442;13.284;2023-02-01T10:38:43;5.57;;;2.70;;
18125;SDS011;53956;52.442;13.284;2023-02-01T10:41:12;4.50;;;2.50;;
18125;SDS011;53956;52.442;13.284;2023-02-01T10:43:41;6.43;;;2.80;;
18125;SDS011;53956;52.442;13.284;2023-02-01T10:46:08;6.80;;;3.00;;
18125;SDS011;53956;52.442;13.284;2023-02-01T10:48:36;7.57;;;2.73;;
18125;SDS011;53956;52.442;13.284;2023-02-01T10:51:06;7.47;;;2.50;;
18125;SDS011;53956;52.442;13.284;2023-02-01T10:53:41;3.77;;;2.70;;
18125;SDS011;53956;52.442;13.284;2023-02-01T10:56:14;8.20;;;2.90;;
18125;SDS011;53956;52.442;13.284;2023-02-01T10:58:47;5.33;;;2.80;;
18125;SDS011;53956;52.442;13.284;2023-02-01T11:01:16;7.47;;;2.73;;
18125;SDS011;53956;52.442;13.284;2023-02-01T11:03:50;7.83;;;2.93;;
18125;SDS011;53956;52.442;13.284;2023-02-01T11:06:22;8.20;;;3.37;;
18125;SDS011;53956;52.442;13.284;2023-02-01T11:08:53;7.70;;;3.40;;
18125;SDS011;53956;52.442;13.284;2023-02-01T11:11:22;7.07;;;3.20;;
18125;SDS011;53956;52.442;13.284;2023-02-01T11:13:53;10.77;;;3.20;;
18125;SDS011;53956;52.442;13.284;2023-02-01T11:16:22;7.37;;;3.17;;
18125;SDS011;53956;52.442;13.284;2023-02-01T11:18:57;8.80;;;3.37;;
18125;SDS011;53956;52.442;13.284;2023-02-01T11:21:25;10.07;;;3.27;;
18125;SDS011;53956;52.442;13.284;2023-02-01T11:23:53;8.77;;;3.57;;
18125;SDS011;53956;52.442;13.284;2023-02-01T11:26:21;8.53;;;2.80;;
18125;SDS011;53956;52.442;13.284;2023-02-01T11:28:54;9.20;;;3.73;;
18125;SDS011;53956;52.442;13.284;2023-02-01T11:31:24;9.23;;;3.20;;
18125;SDS011;53956;52.442;13.284;2023-02-01T11:33:54;12.87;;;3.63;;
18125;SDS011;53956;52.442;13.284;2023-02-01T11:36:25;9.80;;;3.47;;
18125;SDS011;53956;52.442;13.284;2023-02-01T11:38:54;15.50;;;4.17;;
18125;SDS011;53956;52.442;13.284;2023-02-01T11:41:40;7.63;;;3.23;;
18125;SDS011;53956;52.442;13.284;2023-02-01T11:44:19;11.73;;;3.33;;
18125;SDS011;53956;52.442;13.284;2023-02-01T11:46:48;11.00;;;3.30;;
18125;SDS011;53956;52.442;13.284;2023-02-01T11:49:20;9.37;;;3.23;;
18125;SDS011;53956;52.442;13.284;2023-02-01T11:51:54;9.27;;;3.07;;
18125;SDS011;53956;52.442;13.284;2023-02-01T11:54:34;13.20;;;3.37;;
18125;SDS011;53956;52.442;13.284;2023-02-01T11:57:17;8.30;;;3.10;;
18125;SDS011;53956;52.442;13.284;2023-02-01T11:59:57;9.87;;;3.30;;
18125;SDS011;53956;52.442;13.284;2023-02-01T12:02:46;12.00;;;3.50;;
18125;SDS011;53956;52.442;13.284;2023-02-01T12:05:32;9.87;;;3.50;;
18125;SDS011;53956;52.442;13.284;2023-02-01T12:08:15;8.47;;;3.47;;
18125;SDS011;53956;52.442;13.284;2023-02-01T12:10:51;7.93;;;3.17;;
18125;SDS011;53956;52.442;13.284;2023-02-01T12:13:31;8.67;;;3.20;;
18125;SDS011;53956;52.442;13.284;2023-02-01T12:16:11;13.03;;;3.50;;
18125;SDS011;53956;52.442;13.284;2023-02-01T12:18:53;10.73;;;3.37;;
18125;SDS011;53956;52.442;13.284;2023-02-01T12:21:41;13.17;;;3.47;;
18125;SDS011;53956;52.442;13.284;2023-02-01T12:24:22;12.93;;;4.20;;
18125;SDS011;53956;52.442;13.284;2023-02-01T12:27:11;9.30;;;3.23;;
18125;SDS011;53956;52.442;13.284;2023-02-01T12:29:49;11.47;;;3.23;;
18125;SDS011;53956;52.442;13.284;2023-02-01T12:32:31;12.73;;;3.50;;
18125;SDS011;53956;52.442;13.284;2023-02-01T12:35:14;7.90;;;3.30;;
18125;SDS011;53956;52.442;13.284;2023-02-01T12:38:10;11.57;;;3.77;;
18125;SDS011;53956;52.442;13.284;2023-02-01T12:40:50;11.33;;;3.37;;
18125;SDS011;53956;52.442;13.284;2023-02-01T12:43:33;10.50;;;3.60;;
18125;SDS011;53956;52.442;13.284;2023-02-01T12:46:05;10.50;;;3.27;;
18125;SDS011;53956;52.442;13.284;2023-02-01T12:48:37;11.87;;;3.20;;
18125;SDS011;53956;52.442;13.284;2023-02-01T12:51:09;11.17;;;3.43;;
18125;SDS011;53956;52.442;13.284;2023-02-01T12:53:44;14.37;;;3.87;;
18125;SDS011;53956;52.442;13.284;2023-02-01T12:56:15;12.20;;;3.40;;
18125;SDS011;53956;52.442;13.284;2023-02-01T12:58:48;12.57;;;3.77;;
18125;SDS011;53956;52.442;13.284;2023-02-01T13:01:19;10.47;;;3.10;;
18125;SDS011;53956;52.442;13.284;2023-02-01T13:03:50;9.90;;;3.20;;
18125;SDS011;53956;52.442;13.284;2023-02-01T13:06:22;8.93;;;3.13;;
18125;SDS011;53956;52.442;13.284;2023-02-01T13:08:53;11.97;;;3.30;;
18125;SDS011;53956;52.442;13.284;2023-02-01T13:11:28;10.87;;;2.90;;
18125;SDS011;53956;52.442;13.284;2023-02-01T13:13:59;11.77;;;3.10;;
18125;SDS011;53956;52.442;13.284;2023-02-01T13:16:29;7.93;;;3.03;;
18125;SDS011;53956;52.442;13.284;2023-02-01T13:19:00;11.60;;;2.70;;
18125;SDS011;53956;52.442;13.284;2023-02-01T13:21:31;10.63;;;2.93;;
18125;SDS011;53956;52.442;13.284;2023-02-01T13:24:04;9.70;;;3.07;;
18125;SDS011;53956;52.442;13.284;2023-02-01T13:26:39;7.60;;;3.23;;
18125;SDS011;53956;52.442;13.284;2023-02-01T13:29:06;8.47;;;3.40;;
18125;SDS011;53956;52.442;13.284;2023-02-01T13:31:44;8.93;;;3.50;;
18125;SDS011;53956;52.442;13.284;2023-02-01T13:34:32;9.13;;;2.97;;
18125;SDS011;53956;52.442;13.284;2023-02-01T13:37:26;8.83;;;3.03;;
18125;SDS011;53956;52.442;13.284;2023-02-01T13:40:07;11.10;;;3.47;;
18125;SDS011;53956;52.442;13.284;2023-02-01T13:42:47;13.23;;;3.90;;
18125;SDS011;53956;52.442;13.284;2023-02-01T13:45:16;9.57;;;3.57;;
18125;SDS011;53956;52.442;13.284;2023-02-01T13:47:46;13.73;;;4.27;;
18125;SDS011;53956;52.442;13.284;2023-02-01T13:50:20;10.83;;;3.60;;
18125;SDS011;53956;52.442;13.284;2023-02-01T13:52:51;10.47;;;3.43;;
18125;SDS011;53956;52.442;13.284;2023-02-01T13:55:26;12.70;;;3.60;;
18125;SDS011;53956;52.442;13.284;2023-02-01T13:58:02;12.23;;;3.80;;
18125;SDS011;53956;52.442;13.284;2023-02-01T14:00:40;11.03;;;3.63;;
18125;SDS011;53956;52.442;13.284;2023-02-01T14:03:12;13.87;;;3.83;;
18125;SDS011;53956;52.442;13.284;2023-02-01T14:06:02;15.80;;;4.50;;
18125;SDS011;53956;52.442;13.284;2023-02-01T14:08:43;10.63;;;3.57;;
18125;SDS011;53956;52.442;13.284;2023-02-01T14:11:33;15.07;;;4.10;;
18125;SDS011;53956;52.442;13.284;2023-02-01T14:17:29;12.10;;;4.20;;
18125;SDS011;53956;52.442;13.284;2023-02-01T14:23:18;11.03;;;3.73;;
18125;SDS011;53956;52.442;13.284;2023-02-01T14:28:52;11.80;;;4.23;;
18125;SDS011;53956;52.442;13.284;2023-02-01T14:31:28;14.93;;;4.17;;
18125;SDS011;53956;52.442;13.284;2023-02-01T14:34:02;17.00;;;4.20;;
18125;SDS011;53956;52.442;13.284;2023-02-01T14:36:41;16.00;;;4.37;;
18125;SDS011;53956;52.442;13.284;2023-02-01T14:39:30;11.77;;;4.33;;
18125;SDS011;53956;52.442;13.284;2023-02-01T14:42:01;16.03;;;4.80;;
18125;SDS011;53956;52.442;13.284;2023-02-01T14:44:32;13.10;;;4.30;;
18125;SDS011;53956;52.442;13.284;2023-02-01T14:47:02;14.30;;;4.33;;
18125;SDS011;53956;52.442;13.284;2023-02-01T14:49:35;11.80;;;4.10;;
18125;SDS011;53956;52.442;13.284;2023-02-01T14:52:06;13.13;;;4.00;;
18125;SDS011;53956;52.442;13.284;2023-02-01T14:54:39;15.83;;;4.00;;
18125;SDS011;53956;52.442;13.284;2023-02-01T14:57:09;14.63;;;4.20;;
18125;SDS011;53956;52.442;13.284;2023-02-01T14:59:42;8.17;;;3.37;;